Time;durP1;ratioP1;P1;durP2;ratioP2;P2;SDS_P1;SDS_P2;PMS_P1;PMS_P2;Temp;Humidity;BMP_temperature;BMP_pressure;BME280_temperature;BME280_humidity;BME280_pressure;Samples;Min_cycle;Max_cycle;Signal;HPM_P1;HPM_P2
2022/09/17 00:01:04;;;;;;;8.63;1.95;;;;;;;;;;4973719;28;20027;-76
2022/09/17 00:03:33;;;;;;;17.17;2.65;;;;;;;;;;4986475;28;20031;-76
2022/09/17 00:06:03;;;;;;;11.65;1.85;;;;;;;;;;4949119;28;20031;-76
2022/09/17 00:08:30;;;;;;;23.17;2.80;;;;;;;;;;4963075;28;20134;-75
2022/09/17 00:10:56;;;;;;;22.35;2.53;;;;;;;;;;4966458;28;20097;-76
2022/09/17 00:13:22;;;;;;;15.30;2.38;;;;;;;;;;4976148;28;20051;-75
2022/09/17 00:15:50;;;;;;;13.30;2.78;;;;;;;;;;4973972;28;20058;-75
2022/09/17 00:18:16;;;;;;;26.50;2.65;;;;;;;;;;4955815;28;20035;-75
2022/09/17 00:20:43;;;;;;;15.20;2.50;;;;;;;;;;4973094;28;20919;-75
2022/09/17 00:23:09;;;;;;;19.05;2.78;;;;;;;;;;4953233;28;20085;-75
2022/09/17 00:25:39;;;;;;;21.75;2.95;;;;;;;;;;4973847;28;20437;-75
2022/09/17 00:28:05;;;;;;;21.40;3.60;;;;;;;;;;4971769;28;20050;-76
2022/09/17 00:30:31;;;;;;;20.50;2.58;;;;;;;;;;4977990;28;20066;-75
2022/09/17 00:32:57;;;;;;;21.95;2.42;;;;;;;;;;4987084;28;20074;-75
2022/09/17 00:35:24;;;;;;;25.92;3.70;;;;;;;;;;4958206;28;20035;-75
2022/09/17 00:37:50;;;;;;;20.65;3.03;;;;;;;;;;4959908;28;20042;-75
2022/09/17 00:40:16;;;;;;;19.95;2.67;;;;;;;;;;4971906;28;20027;-75
2022/09/17 00:42:44;;;;;;;22.95;2.70;;;;;;;;;;4973468;28;20122;-75
2022/09/17 00:45:10;;;;;;;27.80;3.40;;;;;;;;;;4973737;28;20034;-76
2022/09/17 00:47:38;;;;;;;18.75;2.42;;;;;;;;;;4968679;28;20019;-75
2022/09/17 00:50:09;;;;;;;21.17;2.78;;;;;;;;;;4969413;28;20038;-75
2022/09/17 00:52:37;;;;;;;24.95;3.20;;;;;;;;;;4969169;28;20134;-75
2022/09/17 00:55:17;;;;;;;18.50;2.70;;;;;;;;;;4965177;28;20482;-75
2022/09/17 00:57:44;;;;;;;18.02;2.33;;;;;;;;;;4958878;28;20498;-76
2022/09/17 01:00:11;;;;;;;23.40;2.22;;;;;;;;;;4964557;28;20038;-75
2022/09/17 01:02:38;;;;;;;14.77;3.15;;;;;;;;;;4975514;28;20388;-75
2022/09/17 01:05:04;;;;;;;16.02;2.17;;;;;;;;;;4974894;28;20035;-75
2022/09/17 01:07:43;;;;;;;14.25;2.13;;;;;;;;;;4952671;28;20559;-75
2022/09/17 01:10:15;;;;;;;13.80;1.92;;;;;;;;;;4972579;28;20065;-75
2022/09/17 01:12:47;;;;;;;17.38;2.03;;;;;;;;;;4973920;28;20042;-76
2022/09/17 01:15:25;;;;;;;12.68;1.70;;;;;;;;;;4968392;28;20501;-76
2022/09/17 01:18:10;;;;;;;15.82;1.55;;;;;;;;;;4959102;28;20035;-76
2022/09/17 01:20:42;;;;;;;12.15;1.65;;;;;;;;;;4967013;28;20086;-76
2022/09/17 01:23:24;;;;;;;12.25;2.88;;;;;;;;;;4973461;28;20082;-75
2022/09/17 01:26:13;;;;;;;12.75;2.08;;;;;;;;;;4959035;28;20039;-75
2022/09/17 01:28:45;;;;;;;15.85;1.60;;;;;;;;;;4955697;28;20494;-75
2022/09/17 01:31:24;;;;;;;15.55;1.95;;;;;;;;;;4973053;28;20126;-75
2022/09/17 01:33:50;;;;;;;11.95;2.15;;;;;;;;;;4954377;28;20122;-75
2022/09/17 01:36:16;;;;;;;21.65;2.40;;;;;;;;;;4972621;28;20057;-75
2022/09/17 01:39:02;;;;;;;24.23;2.58;;;;;;;;;;4965848;28;20038;-74
2022/09/17 01:41:49;;;;;;;18.92;2.55;;;;;;;;;;4974476;28;20034;-75
2022/09/17 01:44:30;;;;;;;13.13;2.45;;;;;;;;;;4969802;28;20039;-75
2022/09/17 01:47:01;;;;;;;14.48;2.15;;;;;;;;;;4988295;28;20026;-75
2022/09/17 01:49:27;;;;;;;15.80;1.98;;;;;;;;;;4961144;28;20037;-74
2022/09/17 01:51:54;;;;;;;16.38;2.40;;;;;;;;;;4965056;28;20422;-75
2022/09/17 01:54:40;;;;;;;13.05;2.55;;;;;;;;;;4977898;28;20080;-75
2022/09/17 01:57:10;;;;;;;16.85;1.90;;;;;;;;;;4968682;28;20031;-75
2022/09/17 01:59:40;;;;;;;15.82;2.03;;;;;;;;;;4973423;28;20038;-75
2022/09/17 02:02:19;;;;;;;7.78;1.80;;;;;;;;;;4973963;28;20038;-75
2022/09/17 02:04:51;;;;;;;13.52;2.15;;;;;;;;;;4970010;28;20038;-75
2022/09/17 02:07:22;;;;;;;17.23;1.92;;;;;;;;;;4971162;28;20056;-75
2022/09/17 02:09:53;;;;;;;21.17;2.28;;;;;;;;;;4973304;28;20034;-75
2022/09/17 02:12:23;;;;;;;15.77;2.20;;;;;;;;;;4976029;28;20045;-75
2022/09/17 02:14:50;;;;;;;12.48;1.88;;;;;;;;;;4973284;28;20362;-75
2022/09/17 02:17:37;;;;;;;22.42;1.70;;;;;;;;;;4972882;28;20115;-75
2022/09/17 02:20:03;;;;;;;19.90;2.50;;;;;;;;;;4970261;28;20023;-75
2022/09/17 02:22:34;;;;;;;13.95;2.75;;;;;;;;;;4968243;28;20147;-75
2022/09/17 02:25:03;;;;;;;13.20;1.98;;;;;;;;;;4965832;28;20475;-75
2022/09/17 02:27:32;;;;;;;12.48;2.30;;;;;;;;;;4972763;28;20023;-75
2022/09/17 02:29:58;;;;;;;13.05;2.25;;;;;;;;;;4970820;28;20054;-75
2022/09/17 02:32:24;;;;;;;14.23;1.55;;;;;;;;;;4988882;28;20061;-75
2022/09/17 02:34:52;;;;;;;14.50;3.55;;;;;;;;;;4971685;28;20031;-75
2022/09/17 02:37:18;;;;;;;8.82;1.33;;;;;;;;;;4967795;28;20383;-75
2022/09/17 02:39:44;;;;;;;8.02;1.38;;;;;;;;;;4970894;28;20039;-75
2022/09/17 02:42:52;;;;;;;13.00;1.75;;;10.60;99.90;;;;;;4970260;28;20058;-75
2022/09/17 02:45:23;;;;;;;14.50;2.30;;;;;;;;;;4961642;28;20086;-75
2022/09/17 02:47:58;;;;;;;16.05;1.92;;;;;;;;;;4980668;28;20030;-75
2022/09/17 02:50:30;;;;;;;13.00;2.38;;;;;;;;;;4968006;28;20043;-75
2022/09/17 02:52:55;;;;;;;15.07;3.03;;;;;;;;;;4972564;28;20034;-76
2022/09/17 02:55:30;;;;;;;11.98;2.00;;;;;;;;;;4964649;28;20383;-76
2022/09/17 02:58:11;;;;;;;14.00;1.80;;;;;;;;;;4972151;28;20070;-75
2022/09/17 03:00:38;;;;;;;14.15;1.88;;;;;;;;;;4970765;28;20030;-75
2022/09/17 03:03:07;;;;;;;11.90;1.73;;;;;;;;;;4962131;28;20109;-75
2022/09/17 03:05:35;;;;;;;15.05;2.35;;;;;;;;;;4964401;28;20117;-75
2022/09/17 03:08:01;;;;;;;11.18;2.38;;;;;;;;;;4958279;28;20186;-75
2022/09/17 03:10:29;;;;;;;13.73;2.28;;;;;;;;;;4960827;28;20031;-75
2022/09/17 03:12:55;;;;;;;16.58;2.08;;;;;;;;;;4969112;28;20042;-75
2022/09/17 03:15:21;;;;;;;12.98;2.05;;;;;;;;;;4969926;28;20053;-75
2022/09/17 03:17:47;;;;;;;17.48;2.40;;;;;;;;;;4955316;28;20037;-74
2022/09/17 03:20:14;;;;;;;13.88;2.05;;;;;;;;;;4971611;28;20035;-74
2022/09/17 03:22:41;;;;;;;15.10;2.53;;;;;;;;;;4954422;28;20034;-74
2022/09/17 03:25:07;;;;;;;20.65;2.85;;;;;;;;;;4955151;28;20473;-74
2022/09/17 03:27:33;;;;;;;14.45;2.40;;;;;;;;;;4964405;28;20422;-75
2022/09/17 03:29:59;;;;;;;13.77;2.50;;;;;;;;;;4954400;28;20027;-74
2022/09/17 03:32:25;;;;;;;11.75;2.65;;;;;;;;;;4950656;28;20437;-74
2022/09/17 03:34:53;;;;;;;15.75;1.80;;;;;;;;;;4968540;28;20046;-74
2022/09/17 03:37:19;;;;;;;8.80;1.33;;;;;;;;;;4971301;28;20475;-74
2022/09/17 03:39:45;;;;;;;18.33;2.45;;;;;;;;;;4965220;28;20045;-74
2022/09/17 03:42:11;;;;;;;12.50;1.40;;;;;;;;;;4954958;28;20035;-74
2022/09/17 03:44:37;;;;;;;8.88;1.05;;;;;;;;;;4960115;28;20048;-74
2022/09/17 03:47:03;;;;;;;8.80;1.65;;;;;;;;;;4949133;28;20102;-74
2022/09/17 03:49:29;;;;;;;18.58;1.48;;;;;;;;;;4955651;28;20031;-74
2022/09/17 03:51:55;;;;;;;7.25;1.55;;;;;;;;;;4973180;28;20043;-74
2022/09/17 03:54:21;;;;;;;12.48;1.67;;;;;;;;;;4972293;28;20037;-74
2022/09/17 03:56:47;;;;;;;11.38;2.08;;;;;;;;;;4970196;28;20203;-74
2022/09/17 03:59:13;;;;;;;27.42;11.50;;;;;;;;;;4972704;28;20070;-73
2022/09/17 04:01:39;;;;;;;14.32;2.28;;;;;;;;;;4982485;28;20027;-73
2022/09/17 04:04:06;;;;;;;13.57;2.92;;;;;;;;;;4977111;28;20027;-73
2022/09/17 04:06:32;;;;;;;19.20;2.95;;;;;;;;;;4973076;28;20039;-74
2022/09/17 04:08:59;;;;;;;15.98;2.50;;;;;;;;;;4967612;28;20043;-73
2022/09/17 04:11:25;;;;;;;7.95;1.15;;;;;;;;;;4955498;28;20553;-73
2022/09/17 04:13:51;;;;;;;12.80;2.45;;;;;;;;;;4973125;28;20034;-73
2022/09/17 04:16:17;;;;;;;11.57;3.33;;;;;;;;;;4974668;28;20031;-73
2022/09/17 04:18:43;;;;;;;10.98;1.50;;;;;;;;;;4974433;28;20123;-73
2022/09/17 04:21:09;;;;;;;17.05;3.72;;;;;;;;;;4970170;28;20109;-73
2022/09/17 04:23:35;;;;;;;13.88;1.83;;;;;;;;;;4975534;28;20031;-74
2022/09/17 04:26:01;;;;;;;17.70;2.25;;;;;;;;;;4973461;28;20135;-74
2022/09/17 04:28:27;;;;;;;10.30;1.40;;;;;;;;;;4964335;28;20039;-73
2022/09/17 04:30:53;;;;;;;13.00;1.60;;;;;;;;;;4977707;28;20106;-73
2022/09/17 04:33:19;;;;;;;12.20;1.67;;;;;;;;;;4955555;28;20042;-74
2022/09/17 04:35:45;;;;;;;14.02;2.40;;;;;;;;;;4984842;28;20490;-74
2022/09/17 04:38:17;;;;;;;16.50;2.95;;;;;;;;;;4974425;28;20062;-74
2022/09/17 04:40:43;;;;;;;15.27;3.42;;;;;;;;;;4969691;28;20130;-73
2022/09/17 04:43:09;;;;;;;19.35;5.47;;;;;;;;;;4975198;28;20034;-71
2022/09/17 04:45:35;;;;;;;11.98;2.20;;;;;;;;;;4970664;28;20030;-74
2022/09/17 04:48:01;;;;;;;12.02;1.70;;;;;;;;;;4969147;28;20034;-73
2022/09/17 04:50:27;;;;;;;11.77;2.17;;;;;;;;;;4978066;28;20038;-73
2022/09/17 04:52:53;;;;;;;12.43;2.05;;;;;;;;;;4957162;28;20067;-74
2022/09/17 04:55:19;;;;;;;10.40;1.70;;;;;;;;;;4985804;28;20505;-72
2022/09/17 04:57:49;;;;;;;10.10;1.35;;;;;;;;;;4962935;28;20039;-73
2022/09/17 05:00:16;;;;;;;8.40;1.10;;;;;;;;;;4969827;28;20031;-74
2022/09/17 05:02:44;;;;;;;9.77;1.50;;;;;;;;;;4978351;28;20126;-74
2022/09/17 05:05:10;;;;;;;8.73;1.52;;;;;;;;;;4964023;28;20027;-75
2022/09/17 05:07:39;;;;;;;8.70;1.08;;;;;;;;;;4971333;28;20043;-73
2022/09/17 05:10:06;;;;;;;6.20;0.98;;;;;;;;;;4954690;28;20063;-74
2022/09/17 05:12:32;;;;;;;9.45;1.25;;;;;;;;;;4961965;28;20071;-74
2022/09/17 05:14:58;;;;;;;9.32;1.50;;;;;;;;;;4972655;28;20109;-74
2022/09/17 05:17:24;;;;;;;7.85;1.10;;;;;;;;;;4969642;28;20033;-74
2022/09/17 05:19:52;;;;;;;13.02;2.25;;;;;;;;;;4991230;28;20035;-73
2022/09/17 05:22:18;;;;;;;13.73;2.00;;;;;;;;;;4958073;28;20042;-74
2022/09/17 05:24:44;;;;;;;11.55;1.50;;;;;;;;;;4963020;28;20098;-73
2022/09/17 05:27:10;;;;;;;9.45;2.15;;;;;;;;;;4970437;28;20615;-73
2022/09/17 05:29:36;;;;;;;10.48;1.50;;;;;;;;;;4972857;28;20023;-73
2022/09/17 05:32:03;;;;;;;12.45;2.42;;;;;;;;;;4969837;28;20039;-73
2022/09/17 05:34:29;;;;;;;11.55;2.00;;;;;;;;;;4974275;28;20117;-73
2022/09/17 05:36:55;;;;;;;6.57;1.45;;;;;;;;;;4974154;28;20050;-73
2022/09/17 05:39:24;;;;;;;9.32;1.95;;;;;;;;;;4959562;28;20022;-73
2022/09/17 05:41:50;;;;;;;11.80;2.20;;;;;;;;;;4974099;28;20126;-72
2022/09/17 05:44:16;;;;;;;12.77;1.45;;;;;;;;;;4973191;28;20039;-73
2022/09/17 05:46:42;;;;;;;14.40;2.30;;;;;;;;;;4956508;28;20027;-73
2022/09/17 05:49:08;;;;;;;13.30;1.55;;;;;;;;;;4970144;28;20058;-73
2022/09/17 05:51:34;;;;;;;7.65;1.30;;;;;;;;;;4970913;28;20595;-74
2022/09/17 05:54:00;;;;;;;10.13;1.63;;;;;;;;;;4981114;28;20034;-73
2022/09/17 05:56:26;;;;;;;9.55;1.27;;;;;;;;;;4964901;28;20022;-74
2022/09/17 05:58:55;;;;;;;15.07;2.08;;;;;;;;;;4973029;28;20034;-74
2022/09/17 06:01:21;;;;;;;10.32;1.73;;;;;;;;;;4973824;28;20419;-74
2022/09/17 06:03:47;;;;;;;17.10;2.15;;;;;;;;;;4950104;28;20037;-74
2022/09/17 06:06:14;;;;;;;10.27;1.48;;;;;;;;;;4973158;28;20034;-74
2022/09/17 06:08:40;;;;;;;10.80;1.65;;;;;;;;;;4971949;28;20043;-75
2022/09/17 06:11:06;;;;;;;5.97;0.90;;;;;;;;;;4965541;28;20030;-74
2022/09/17 06:13:34;;;;;;;10.82;1.90;;;;;;;;;;4973660;28;20031;-74
2022/09/17 06:16:00;;;;;;;14.50;2.55;;;;;;;;;;4971787;28;20162;-75
2022/09/17 06:18:27;;;;;;;7.78;0.85;;;;;;;;;;4972151;28;20031;-75
2022/09/17 06:20:54;;;;;;;8.40;2.55;;;;;;;;;;4970424;28;20109;-74
2022/09/17 06:23:20;;;;;;;11.70;1.67;;;;;;;;;;4960900;28;20031;-74
2022/09/17 06:25:53;;;;;;;7.93;1.02;;;;;;;;;;4973703;28;20042;-74
2022/09/17 06:28:19;;;;;;;7.65;1.38;;;;;;;;;;4952321;28;20020;-74
2022/09/17 06:30:45;;;;;;;10.10;1.38;;;;;;;;;;4955545;28;20129;-73
2022/09/17 06:33:11;;;;;;;8.05;0.98;;;;;;;;;;4972341;28;20054;-74
2022/09/17 06:35:37;;;;;;;9.23;1.05;;;;;;;;;;4967289;28;20037;-74
2022/09/17 06:38:06;;;;;;;7.22;1.00;;;;;;;;;;4950979;28;20047;-74
2022/09/17 06:40:32;;;;;;;15.80;1.45;;;;;;;;;;4969242;28;20025;-74
2022/09/17 06:42:58;;;;;;;11.52;1.92;;;;;;;;;;4967031;28;20057;-75
2022/09/17 06:45:25;;;;;;;12.15;2.33;;;;;;;;;;4963365;28;20038;-74
2022/09/17 06:47:51;;;;;;;10.68;1.58;;;;;;;;;;4958979;28;20035;-74
2022/09/17 06:50:17;;;;;;;13.35;1.65;;;;;;;;;;4970437;28;20109;-74
2022/09/17 06:52:50;;;;;;;14.18;1.52;;;;;;;;;;4977599;28;20074;-73
2022/09/17 06:55:16;;;;;;;14.88;2.03;;;;;;;;;;4967271;28;20039;-74
2022/09/17 06:57:42;;;;;;;12.13;1.33;;;;;;;;;;4967400;28;20034;-74
2022/09/17 07:00:09;;;;;;;8.60;1.00;;;;;;;;;;4970315;28;20038;-74
2022/09/17 07:02:35;;;;;;;13.07;1.92;;;;;;;;;;4974827;28;20038;-75
2022/09/17 07:05:01;;;;;;;11.90;4.30;;;;;;;;;;4971627;28;20095;-74
2022/09/17 07:07:27;;;;;;;9.05;1.02;;;;;;;;;;4960589;28;20081;-78
2022/09/17 07:09:54;;;;;;;14.30;1.42;;;;;;;;;;4968444;28;20026;-78
2022/09/17 07:12:20;;;;;;;6.47;1.38;;;;;;;;;;4960243;28;20039;-77
2022/09/17 07:14:49;;;;;;;9.95;2.17;;;;;;;;;;4953963;28;20034;-76
2022/09/17 07:17:15;;;;;;;5.97;1.00;;;;;;;;;;4970256;28;20601;-74
2022/09/17 07:19:41;;;;;;;6.72;1.17;;;;;;;;;;4972825;28;20041;-74
2022/09/17 07:22:07;;;;;;;23.77;2.85;;;;;;;;;;4969402;28;20038;-75
2022/09/17 07:24:33;;;;;;;10.93;1.92;;;;;;;;;;4969515;28;20066;-76
2022/09/17 07:26:59;;;;;;;15.68;2.88;;;;;;;;;;4972574;28;20035;-78
2022/09/17 07:29:26;;;;;;;7.05;1.02;;;;;;;;;;4971504;28;20059;-75
2022/09/17 07:31:52;;;;;;;9.82;1.08;;;;;;;;;;4974348;28;20368;-75
2022/09/17 07:34:18;;;;;;;4.32;0.70;;;;;;;;;;4970817;28;20102;-76
2022/09/17 07:36:45;;;;;;;6.25;1.33;;;;;;;;;;4966616;28;20030;-75
2022/09/17 07:39:12;;;;;;;7.03;1.75;;;;;;;;;;4951561;28;20054;-74
2022/09/17 07:41:38;;;;;;;6.70;0.77;;;;;;;;;;4976343;28;20359;-74
2022/09/17 07:44:05;;;;;;;5.72;1.10;;;;;;;;;;4978407;28;20034;-74
2022/09/17 07:46:31;;;;;;;7.38;0.70;;;;;;;;;;4967329;28;20018;-74
2022/09/17 07:48:57;;;;;;;3.83;0.85;;;;;;;;;;4947668;28;20066;-74
2022/09/17 07:51:25;;;;;;;17.77;2.05;;;;;;;;;;4971162;28;20517;-75
2022/09/17 07:53:55;;;;;;;9.65;0.98;;;;;;;;;;4954928;28;20031;-73
2022/09/17 07:56:21;;;;;;;8.07;1.23;;;;;;;;;;4969706;28;20156;-73
2022/09/17 07:58:48;;;;;;;7.55;1.42;;;;;;;;;;4972500;28;20102;-73
2022/09/17 08:01:17;;;;;;;10.32;1.85;;;;;;;;;;4979379;28;20033;-73
2022/09/17 08:03:47;;;;;;;7.65;1.05;;;;;;;;;;4953506;28;20500;-72
2022/09/17 08:06:15;;;;;;;6.63;1.17;;;;;;;;;;4970942;28;20082;-74
2022/09/17 08:08:41;;;;;;;9.60;1.02;;;;;;;;;;4974244;28;20502;-74
2022/09/17 08:11:11;;;;;;;6.40;1.02;;;;;;;;;;4988115;28;20133;-73
2022/09/17 08:13:38;;;;;;;10.43;1.25;;;;;;;;;;4969716;28;20043;-75
2022/09/17 08:16:05;;;;;;;4.95;1.05;;;;;;;;;;4967807;28;20378;-75
2022/09/17 08:18:31;;;;;;;5.22;0.80;;;;;;;;;;4970118;28;20501;-74
2022/09/17 08:21:02;;;;;;;6.47;1.10;;;;;;;;;;4948737;28;20074;-74
2022/09/17 08:23:28;;;;;;;10.90;1.70;;;;;;;;;;4970870;28;20501;-74
2022/09/17 08:25:59;;;;;;;6.82;1.20;;;;;;;;;;4971320;28;20035;-75
2022/09/17 08:28:25;;;;;;;11.15;1.58;;;;;;;;;;4945844;28;20045;-74
2022/09/17 08:30:52;;;;;;;6.88;1.92;;;;;;;;;;4955955;28;20439;-74
2022/09/17 08:33:19;;;;;;;9.45;1.15;;;;;;;;;;4971025;28;20046;-73
2022/09/17 08:35:58;;;;;;;14.70;1.20;;;;;;;;;;4962271;28;20046;-74
2022/09/17 08:38:25;;;;;;;10.73;1.20;;;;;;;;;;4973665;28;20031;-74
2022/09/17 08:41:09;;;;;;;9.15;1.20;;;;;;;;;;4975065;28;20034;-74
2022/09/17 08:43:49;;;;;;;10.40;1.25;;;;;;;;;;4971367;28;20100;-74
2022/09/17 08:46:15;;;;;;;4.65;0.90;;;;;;;;;;4976096;28;20269;-74
2022/09/17 08:48:54;;;;;;;8.25;1.00;;;;;;;;;;4970871;28;20085;-75
2022/09/17 08:51:40;;;;;;;6.57;0.95;;;;;;;;;;4972707;28;20090;-74
2022/09/17 08:54:12;;;;;;;7.70;1.20;;;;;;;;;;4974014;28;20030;-74
2022/09/17 08:56:40;;;;;;;9.80;1.15;;;;;;;;;;4974008;28;20023;-75
2022/09/17 08:59:11;;;;;;;10.38;1.40;;;;;;;;;;4977588;28;20098;-76
2022/09/17 09:01:37;;;;;;;13.23;2.03;;;;;;;;;;4974715;28;20027;-75
2022/09/17 09:04:23;;;;;;;17.70;1.92;;;;;;;;;;4952049;28;20079;-76
2022/09/17 09:06:52;;;;;;;14.70;2.28;;;;;;;;;;4970128;28;20034;-77
2022/09/17 09:09:20;;;;;;;15.07;1.60;;;;;;;;;;4956862;28;20039;-76
2022/09/17 09:11:47;;;;;;;7.65;0.90;;;;;;;;;;4953755;28;20406;-74
2022/09/17 09:14:13;;;;;;;5.38;1.08;;;;;;;;;;4974083;28;20038;-75
2022/09/17 09:16:41;;;;;;;5.65;0.98;;;;;;;;;;4966968;28;20038;-73
2022/09/17 09:19:19;;;;;;;5.72;1.00;;;;;;;;;;4952755;28;20054;-72
2022/09/17 09:21:54;;;;;;;9.18;1.50;;;;;;;;;;4956789;28;20054;-72
2022/09/17 09:24:25;;;;;;;11.95;1.33;;;;;;;;;;4974373;28;20031;-75
2022/09/17 09:27:00;;;;;;;5.82;0.88;;;;;;;;;;4976804;28;20037;-73
2022/09/17 09:29:29;;;;;;;4.32;0.90;;;;;;;;;;4972607;28;20031;-73
2022/09/17 09:32:09;;;;;;;4.72;1.00;;;;;;;;;;4972473;28;20039;-73
2022/09/17 09:34:36;;;;;;;4.40;0.55;;;;;;;;;;4970554;28;20393;-73
2022/09/17 09:37:11;;;;;;;4.57;0.60;;;;;;;;;;4973202;28;20031;-74
2022/09/17 09:39:40;;;;;;;4.28;0.63;;;;;;;;;;4977151;28;20065;-73
2022/09/17 09:42:21;;;;;;;4.90;1.42;;;;;;;;;;4970398;28;20039;-74
2022/09/17 09:44:47;;;;;;;4.43;0.73;;;;;;;;;;4971607;28;20062;-72
2022/09/17 09:47:25;;;;;;;6.07;1.05;;;;;;;;;;4983719;28;20477;-72
2022/09/17 09:49:52;;;;;;;6.25;1.05;;;;;;;;;;4973382;28;20105;-73
2022/09/17 09:52:37;;;;;;;6.72;1.10;;;;;;;;;;4982828;28;20134;-72
2022/09/17 09:55:21;;;;;;;10.95;1.52;;;;;;;;;;4972891;28;20044;-72
2022/09/17 09:57:53;;;;;;;13.23;1.73;;;;;;;;;;4973173;28;20482;-72
2022/09/17 10:00:27;;;;;;;10.40;2.17;;;;;;;;;;4971511;28;20053;-73
2022/09/17 10:03:04;;;;;;;10.40;1.48;;;;;;;;;;4970420;28;20163;-73
2022/09/17 10:05:30;;;;;;;12.95;1.92;;;;;;;;;;4970763;28;20474;-72
2022/09/17 10:07:56;;;;;;;7.38;1.30;;;;;;;;;;4976793;28;20077;-72
2022/09/17 10:10:22;;;;;;;9.68;1.25;;;;;;;;;;4972223;28;20030;-72
2022/09/17 10:12:48;;;;;;;6.90;1.10;;;;;;;;;;4972217;28;20166;-72
2022/09/17 10:15:22;;;;;;;10.48;1.20;;;;;;;;;;4969982;28;20043;-72
2022/09/17 10:17:48;;;;;;;5.20;0.70;;;;;;;;;;4972716;28;20035;-72
2022/09/17 10:20:16;;;;;;;7.97;0.98;;;;;;;;;;4972793;28;20038;-72
2022/09/17 10:22:45;;;;;;;4.20;0.98;;;;;;;;;;4971639;28;20041;-72
2022/09/17 10:25:18;;;;;;;6.40;1.35;;;;;;;;;;4961715;28;20034;-73
2022/09/17 10:27:44;;;;;;;5.63;0.80;;;;;;;;;;4972285;28;20037;-73
2022/09/17 10:30:10;;;;;;;8.45;1.40;;;;;;;;;;4971992;28;20043;-73
2022/09/17 10:32:36;;;;;;;5.03;0.75;;;;;;;;;;4976193;28;20368;-73
2022/09/17 10:35:23;;;;;;;9.73;0.95;;;;;;;;;;4967054;28;20034;-75
2022/09/17 10:37:50;;;;;;;8.00;1.70;;;;;;;;;;4958989;28;20022;-74
2022/09/17 10:40:19;;;;;;;6.53;0.80;;;;;;;;;;4973925;28;20435;-74
2022/09/17 10:42:49;;;;;;;15.98;1.63;;;;;;;;;;4971162;28;20042;-74
2022/09/17 10:45:25;;;;;;;10.18;1.33;;;;;;;;;;4957378;28;20046;-74
2022/09/17 10:47:51;;;;;;;9.38;1.58;;;;;;;;;;4967753;28;20085;-75
2022/09/17 10:50:19;;;;;;;9.38;1.40;;;;;;;;;;4947641;28;20030;-74
2022/09/17 10:52:50;;;;;;;11.60;2.30;;;;;;;;;;4972885;28;20054;-74
2022/09/17 10:55:28;;;;;;;8.40;1.15;;;;;;;;;;4958944;28;20039;-74
2022/09/17 10:58:06;;;;;;;10.23;1.02;;;;;;;;;;4965889;28;20470;-75
2022/09/17 11:00:43;;;;;;;9.50;1.08;;;;;;;;;;4951286;28;20061;-75
2022/09/17 11:03:27;;;;;;;9.10;1.17;;;;;;;;;;4973999;28;20035;-74
2022/09/17 11:05:59;;;;;;;7.70;1.08;;;;;;;;;;4965838;28;20043;-75
2022/09/17 11:08:57;;;;;;;10.07;1.58;;;15.00;99.90;;;;;;4964023;28;20047;-73
2022/09/17 11:11:35;;;;;;;9.98;1.48;;;;;;;;;;4938460;28;20049;-73
2022/09/17 11:14:36;;;;;;;6.03;1.40;;;;;;;;;;4970856;28;20038;-73
2022/09/17 11:17:17;;;;;;;8.07;1.35;;;;;;;;;;4891876;29;20045;-75
2022/09/17 11:19:55;;;;;;;4.93;0.73;;;;;;;;;;4956392;28;20113;-73
2022/09/17 11:22:39;;;;;;;8.60;1.45;;;;;;;;;;4968865;28;20039;-73
2022/09/17 11:25:06;;;;;;;10.55;1.73;;;;;;;;;;4954629;28;20406;-74
2022/09/17 11:27:43;;;;;;;10.02;1.27;;;;;;;;;;4972819;28;20108;-74
2022/09/17 11:30:14;;;;;;;13.43;2.03;;;;;;;;;;4957327;28;20027;-74
2022/09/17 11:32:59;;;;;;;11.13;1.98;;;;;;;;;;4970127;28;20189;-74
2022/09/17 11:35:52;;;;;;;10.45;1.70;;;;;;;;;;4972368;28;20066;-76
2022/09/17 11:38:21;;;;;;;11.90;1.88;;;;;;;;;;4962585;28;20054;-75
2022/09/17 11:40:58;;;;;;;7.10;1.23;;;;;;;;;;4979276;28;20034;-74
2022/09/17 11:43:24;;;;;;;14.32;1.60;;;;;;;;;;4965463;28;20046;-74
2022/09/17 11:45:56;;;;;;;12.85;2.33;;;;;;;;;;4953438;28;20035;-74
2022/09/17 11:48:27;;;;;;;7.93;2.03;;;;;;;;;;4963777;28;20082;-73
2022/09/17 11:50:56;;;;;;;13.18;4.28;;;;;;;;;;4966195;28;20038;-73
2022/09/17 11:53:22;;;;;;;18.05;2.90;;;;;;;;;;4959394;28;20031;-72
2022/09/17 11:55:51;;;;;;;12.43;2.28;;;;;;;;;;4970528;28;20437;-75
2022/09/17 11:58:26;;;;;;;12.15;2.85;;;;;;;;;;4967561;28;20031;-80
2022/09/17 12:00:54;;;;;;;21.65;3.17;;;;;;;;;;4964670;28;20023;-73
2022/09/17 12:03:25;;;;;;;16.42;2.67;;;;;;;;;;4959109;28;20114;-73
2022/09/17 12:05:56;;;;;;;22.50;2.95;;;;;;;;;;4969810;28;20089;-73
2022/09/17 12:08:25;;;;;;;12.02;2.10;;;;;;;;;;4961665;28;20137;-73
2022/09/17 12:11:01;;;;;;;11.45;1.75;;;;;;;;;;4969943;28;20041;-73
2022/09/17 12:13:39;;;;;;;12.73;1.80;;;;;;;;;;4976052;28;20062;-72
2022/09/17 12:16:17;;;;;;;15.40;2.40;;;;;;;;;;4974416;28;20036;-72
2022/09/17 12:18:50;;;;;;;17.88;2.60;;;;;;;;;;4945885;28;20046;-72
2022/09/17 12:21:40;;;;;;;18.10;2.45;;;;;;;;;;4967790;28;20089;-72
2022/09/17 12:24:19;;;;;;;21.60;4.43;;;;;;;;;;4968256;28;20081;-73
2022/09/17 12:27:15;;;;;;;14.80;2.15;;;;;;;;;;4956171;28;20061;-72
2022/09/17 12:30:06;;;;;;;12.90;1.98;;;16.20;99.90;;;;;;4949966;28;20085;-72
2022/09/17 12:32:45;;;;;;;14.95;2.13;;;;;;;;;;4956604;28;20070;-72
2022/09/17 12:35:20;;;;;;;10.43;1.60;;;;;;;;;;4983327;28;20039;-73
2022/09/17 12:37:58;;;;;;;16.00;2.33;;;;;;;;;;4974445;28;20038;-72
2022/09/17 12:41:14;;;;;;;10.82;1.80;;;15.10;99.90;;;;;;4947093;28;20027;-72
2022/09/17 12:43:58;;;;;;;12.20;2.08;;;15.50;99.90;;;;;;4939270;28;20042;-73
2022/09/17 12:46:50;;;;;;;10.70;2.47;;;15.60;99.90;;;;;;4972533;28;20034;-72
2022/09/17 12:50:01;;;;;;;15.40;3.00;;;15.60;99.90;;;;;;4957954;28;20023;-72
2022/09/17 12:52:40;;;;;;;16.08;2.05;;;;;;;;;;4966073;28;20491;-73
2022/09/17 12:55:29;;;;;;;17.40;3.55;;;;;;;;;;4951018;28;20498;-73
2022/09/17 12:58:02;;;;;;;16.17;2.20;;;;;;;;;;4962465;28;20490;-72
2022/09/17 13:00:31;;;;;;;21.58;3.03;;;;;;;;;;4958180;28;20442;-72
2022/09/17 13:03:04;;;;;;;16.63;2.15;;;;;;;;;;4970017;28;20423;-73
2022/09/17 13:05:45;;;;;;;11.20;2.05;;;;;;;;;;4961402;28;20422;-73
2022/09/17 13:08:22;;;;;;;18.90;2.17;;;;;;;;;;4964331;28;20049;-73
2022/09/17 13:10:58;;;;;;;14.68;1.98;;;;;;;;;;4974054;28;20110;-73
2022/09/17 13:13:24;;;;;;;15.68;2.80;;;;;;;;;;4981191;28;20031;-72
2022/09/17 13:15:50;;;;;;;15.32;2.70;;;;;;;;;;4981314;28;20069;-73
2022/09/17 13:18:16;;;;;;;22.15;2.35;;;;;;;;;;4973755;28;20081;-73
2022/09/17 13:20:52;;;;;;;15.02;2.33;;;;;;;;;;4969076;28;20073;-73
2022/09/17 13:23:28;;;;;;;18.70;2.33;;;;;;;;;;4970107;28;20375;-72
2022/09/17 13:25:54;;;;;;;13.02;1.83;;;;;;;;;;4971541;28;20483;-72
2022/09/17 13:28:21;;;;;;;12.52;2.13;;;;;;;;;;4963773;28;20089;-74
2022/09/17 13:30:55;;;;;;;9.13;1.95;;;;;;;;;;4977092;28;20501;-71
2022/09/17 13:33:40;;;;;;;6.68;1.15;;;;;;;;;;4954023;28;20065;-72
2022/09/17 13:36:26;;;;;;;6.75;1.50;;;;;;;;;;4971395;28;20039;-72
2022/09/17 13:38:52;;;;;;;11.05;1.40;;;;;;;;;;4974361;28;20073;-72
2022/09/17 13:41:20;;;;;;;10.38;1.42;;;;;;;;;;4967331;28;20485;-73
2022/09/17 13:43:47;;;;;;;8.88;2.70;;;;;;;;;;4991058;28;20481;-72
2022/09/17 13:46:14;;;;;;;14.77;1.58;;;;;;;;;;4975225;28;20378;-73
2022/09/17 13:48:48;;;;;;;9.10;1.38;;;;;;;;;;4968542;28;20027;-73
2022/09/17 13:51:32;;;;;;;6.60;1.75;;;;;;;;;;4958838;28;20027;-72
2022/09/17 13:53:59;;;;;;;8.80;1.33;;;;;;;;;;4965316;28;20379;-72
2022/09/17 13:56:34;;;;;;;10.85;1.40;;;;;;;;;;4958439;28;20038;-73
2022/09/17 13:59:08;;;;;;;12.02;1.35;;;;;;;;;;4965181;28;20094;-72
2022/09/17 14:01:53;;;;;;;9.35;1.25;;;;;;;;;;4978299;28;20035;-74
2022/09/17 14:04:40;;;;;;;9.52;1.63;;;13.80;99.90;;;;;;4972030;28;20023;-72
2022/09/17 14:07:25;;;;;;;5.80;1.08;;;;;;;;;;4962016;28;20376;-72
2022/09/17 14:09:54;;;;;;;9.70;1.67;;;;;;;;;;4966692;28;20031;-72
2022/09/17 14:12:49;;;;;;;11.07;2.08;;;12.70;99.90;;;;;;4956310;28;20839;-71
2022/09/17 14:15:40;;;;;;;7.20;1.23;;;12.90;99.90;;;;;;4949486;28;20058;-72
2022/09/17 14:18:27;;;;;;;7.97;1.10;;;13.00;99.90;;;;;;4970706;28;20050;-71
2022/09/17 14:21:13;;;;;;;6.18;0.80;;;;;;;;;;4971659;28;20039;-73
2022/09/17 14:23:46;;;;;;;9.18;1.20;;;;;;;;;;4973053;28;20565;-73
2022/09/17 14:26:31;;;;;;;8.50;1.17;;;;;;;;;;4969549;28;20026;-72
2022/09/17 14:29:18;;;;;;;8.23;1.98;;;;;;;;;;4969642;28;20457;-72
2022/09/17 14:31:44;;;;;;;7.05;1.08;;;;;;;;;;4945188;28;20039;-72
2022/09/17 14:34:17;;;;;;;7.70;1.40;;;;;;;;;;4990886;28;20070;-71
2022/09/17 14:36:43;;;;;;;10.38;1.10;;;;;;;;;;4967666;28;20574;-72
2022/09/17 14:39:12;;;;;;;8.02;1.83;;;;;;;;;;4977281;28;20121;-72
2022/09/17 14:41:40;;;;;;;8.65;1.42;;;;;;;;;;4969763;28;20041;-72
2022/09/17 14:44:14;;;;;;;10.70;1.88;;;;;;;;;;4967081;28;20075;-73
2022/09/17 14:46:53;;;;;;;11.57;1.75;;;;;;;;;;4969407;28;20026;-72
2022/09/17 14:49:21;;;;;;;12.48;1.50;;;;;;;;;;4972016;28;20023;-73
2022/09/17 14:51:48;;;;;;;9.13;2.00;;;;;;;;;;4963222;28;20035;-72
2022/09/17 14:54:15;;;;;;;11.80;3.55;;;;;;;;;;4984210;28;20566;-71